x

Nantucket Sound (44020) Wave Buoy

1:50pm - Sat 19th Apr 2014 All times are EDT. -4 hours from GMT.

  • Sig Wave height 1.3ft
  • Swell Direction
  • Peak Period 3s
  • Average Period 3s
  • Wind
    4mph, 7mph gusts
  • Sea Temp 46°f
  • Air Temp 49°f
  • Sea Pressure 1022.3mb
  • Nantucket Sound
  • Nantucket Sound

More Historic Weather Station data

Upgrade to MSW Pro to gain access to the past 30 days of data for over 8000 Wavebouys and Weather Stations around the globe.

Join Pro

Comparision Forecast

View Surf forecast
   
Sat 04/19 1:50pm 1.3ft 3s 3s 4 7 mph 1022.3mb 46f 49f
12:50pm 1ft 3s 3s 2 4 mph 1022.5mb 46f 49f
11:50am 1.3ft 3s 3s 4 7 mph 1022.6mb 45f 47f
10:50am 1.6ft 3s 3s 11 13 mph 1022.2mb 44f 46f
9:50am 1.6ft 3s 3s 13 16 mph 1022mb 43f 45f
8:50am 1.6ft 3s 3s 16 18 mph 1022.1mb 43f 44f
7:50am 1.3ft 3s 3s 13 18 mph 1022.4mb 43f 42f
6:50am 1.6ft 5s 4s 13 18 mph 1022.2mb 43f 42f
5:50am 1.6ft 5s 4s 11 13 mph 1022.3mb 44f 42f
4:50am 1.6ft 5s 4s 9 11 mph 1022.7mb 44f 42f
3:50am 2ft 4s 4s 7 9 mph 1023mb 44f 42f
2:50am 2ft 4s 5s 9 11 mph 1023mb 44f 42f
1:50am 1.6ft 9s 5s  -  2 mph 1023.1mb 44f 41f
12:50am 1ft 9s 5s  -  2 mph 1023.9mb 44f 41f
Fri 04/18 11:50pm 1ft 5s 5s 2
mph
1025mb 44f 41f
10:50pm 1ft 5s 4s  -  2 mph 1025.4mb 43f 41f
9:50pm 1ft 5s 4s 4 7 mph 1025.7mb 43f 41f
8:50pm 1.3ft 5s 4s 7
mph
1026.1mb 43f 40f
7:50pm 1.6ft 5s 4s 9 11 mph 1026mb 43f 40f
6:50pm 1.6ft 5s 4s 9 11 mph 1026.4mb 43f 40f
5:50pm 2ft 5s 4s 9 11 mph 1027mb 44f 40f
4:50pm 2.5ft 5s 4s 7 9 mph 1028.5mb 45f 41f
3:50pm 2.5ft 4s 4s 7
mph
1029.5mb 46f 41f
2:50pm 2.5ft 5s 4s 9
mph
1029.5mb 46f 41f
1:50pm 2ft 8s 4s 11
mph
1030.4mb 45f 41f
12:50pm 1.6ft 3s 3s 11 16 mph 1030.8mb 45f 41f
11:50am 1.3ft 3s 4s 11 13 mph 1032.2mb 44f 41f
10:50am 1.3ft 3s 4s 11
mph
1033.6mb 44f 41f
9:50am 1.6ft 4s 4s 13 16 mph 1032.7mb 43f 41f
8:50am 2ft 4s 4s 13 18 mph 1032.4mb 43f 40f
7:50am 2ft 3s 3s 18 20 mph 1032.1mb 42f 40f
6:50am 2ft 4s 4s 20 22 mph 1032mb 42f 40f
5:50am 2.5ft 4s 4s 16 18 mph 1033.8mb 43f 40f
4:50am 2.5ft 3s 4s 13 18 mph 1033.9mb 44f 39f
3:50am 3ft 4s 4s 18 20 mph 1034.1mb 44f 39f
2:50am 3.5ft 4s 4s 18 22 mph 1034mb 44f 39f
1:50am 3.5ft 4s 4s 22 25 mph 1034.3mb 44f 39f
12:50am 3ft 4s 4s 20 25 mph 1035.5mb 44f 39f
Thu 04/17 11:50pm 2.5ft 4s 4s 20 25 mph 1036.7mb 44f 39f
10:50pm 2.5ft 5s 4s 20 25 mph 1037.7mb 44f 39f
9:50pm 2.5ft 4s 4s 20 25 mph 1038.4mb 44f 39f
8:50pm 3ft 4s 4s 20 25 mph 1038.7mb 44f 38f
7:50pm 2.5ft 4s 4s 22 27 mph 1038.5mb 44f 38f
6:50pm 3ft 4s 4s 20 25 mph 1039.1mb 44f 38f
5:50pm 3ft 4s 4s 20 25 mph 1038.9mb 44f 38f
4:50pm 3ft 4s 4s 20 25 mph 1039.3mb 45f 38f
3:50pm 3.5ft 3s 4s 20 25 mph 1039.6mb 45f 38f
2:50pm 3.5ft 4s 4s 22 25 mph 1039.9mb 45f 38f
1:50pm 3.5ft 4s 4s 22 27 mph 1040.3mb 45f 38f
12:50pm 3.5ft 4s 4s 22 27 mph 1040.5mb 45f 38f
11:50am 3.5ft 4s 4s 25 29 mph 1040.4mb 45f 38f
10:50am 3.5ft 5s 4s 22 27 mph 1040.6mb 45f 38f
9:50am 3.5ft 5s 4s 25 29 mph 1040.5mb 45f 37f
8:50am 3.5ft 5s 4s 25 29 mph 1039.9mb 44f 37f
7:50am 4ft 4s 4s 25 29 mph 1039.3mb 44f 37f
6:50am 3.5ft 4s 4s 25 31 mph 1038mb 44f 37f
5:50am 3.5ft 4s 4s 27 31 mph 1037.2mb 45f 38f
4:50am 3.5ft 4s 4s 25 29 mph 1037.1mb 45f 38f
3:50am 3.5ft 4s 4s 22 27 mph 1036.5mb 45f 39f
2:50am 3ft 4s 3s 22 27 mph 1035.8mb 45f 39f
1:50am 2.5ft 3s 3s 22 29 mph 1035.5mb 45f 40f
12:50am 2.5ft 3s 4s 20 25 mph 1035.1mb 45f 40f
Wed 04/16 11:50pm 2.5ft 4s 4s 18 22 mph 1034.6mb 45f 40f
10:50pm 2ft 4s 4s 18 22 mph 1034.1mb 45f 40f
9:50pm 2ft 4s 4s 20 22 mph 1033.5mb 45f 40f
8:50pm 2ft 4s 3s 18 22 mph 1032.7mb 45f 40f
7:50pm 2.5ft 3s 3s 18 22 mph 1031.6mb 45f 40f
6:50pm 2.5ft 4s 4s 18 22 mph 1030.7mb 46f 40f
5:50pm 3ft 4s 4s 20 25 mph 1029.8mb 46f 40f
4:50pm 3.5ft 4s 4s 22 25 mph 1028.3mb 45f 40f
3:50pm 3.5ft 4s 4s 20 27 mph 1028.1mb 45f 39f
2:50pm 4ft 5s 4s 25 31 mph 1027.2mb 45f 38f
1:50pm 4.5ft 5s 4s 27 34 mph 1026.3mb 45f 37f
12:50pm 5ft 5s 4s 27 34 mph 1025.1mb 45f 36f
11:50am  -   -   -  29 36 mph 1023.6mb 46f 36f
10:50am 4ft 4s 4s 29 36 mph 1022.5mb 46f 37f
9:50am 4.5ft 4s 4s 29 36 mph 1020.8mb 45f 36f
8:50am 3.5ft 4s 4s 27 34 mph 1019.6mb 45f 37f
7:50am 3.5ft 4s 4s 27 34 mph 1017.7mb 46f 37f
6:50am 3.5ft 4s 4s 27 34 mph 1014.7mb 46f 38f
5:50am 3.5ft 4s 4s 20 22 mph 1012mb 46f 40f
4:50am 3.5ft 4s 4s 25 29 mph 1010.2mb 46f 41f
3:50am 3.5ft 4s 4s 22 27 mph 1008.7mb 46f 42f
2:50am 3ft 4s 4s 18 20 mph 1007.7mb 46f 45f
1:50am 3ft 4s 4s 25 31 mph 1006mb 46f 46f
12:50am 4ft 5s 4s 20 25 mph 1004.5mb 46f 51f
Tue 04/15 11:50pm  -   -   -  34 43 mph 1002.3mb 46f 54f
10:50pm 4.5ft 5s 4s 34 40 mph 1003mb 46f 55f
9:50pm  -   -   -  31 38 mph 1003.9mb 46f 55f
8:50pm 4.5ft 4s 4s 34 40 mph 1004.1mb 46f 55f
7:50pm 4.5ft 5s 4s 34 40 mph 1004.2mb 46f 55f